Flight Track Log - Related Links

Times and Time Zones

All times are in EDT time to prevent confusion due to time zone crossing. See the AAL2356 flight status page for this flight to view local times or setup timezone preferences in your user account.

Time Position Orientation Groundspeed Altitude Reporting Facility
EDT Latitude Longitude Course Direction KTS MPH feet Rate Location/Type
Sat 03:10:59 PM 32.8833 -97.0167 357° North 153 176 1,600  Level Dallas / Fort Worth TRACON
Sat 03:12:00 PM 32.7712 -96.9833 180° South  Level FlightAware Approximate
Sat 03:12:47 PM 32.7833 -96.9833 180° South 245 282 5,400  Level Dallas / Fort Worth TRACON
Sat 03:13:00 PM 32.8510 -96.8000 North  Level FlightAware Approximate
Sat 03:13:36 PM 32.7667 -96.9167 107° East 286 329 7,600  Level Dallas / Fort Worth TRACON
Sat 03:14:00 PM 32.9696 -96.8000 North  Level FlightAware Approximate
Sat 03:15:00 PM 33.0882 -96.8015 357° North  Level FlightAware Approximate
Sat 03:15:46 PM 32.8925 -96.8097 36° Northeast 278 320 11,400  Level Fort Worth Center
Sat 03:16:00 PM 33.2066 -96.8100 357° North  Level FlightAware Approximate
Sat 03:16:46 PM 33.0031 -96.8139 358° North 360 414 13,900  Level Fort Worth Center
Sat 03:17:46 PM 33.1139 -96.8156 359° North 391 450 16,400 2,600 Climbing Fort Worth Center
Sat 03:18:46 PM 33.2306 -96.8150 360° North 410 472 19,100 2,100 Climbing Fort Worth Center
Sat 03:19:46 PM 33.3306 -96.7472 30° Northeast 399 459 20,600 1,600 Climbing Fort Worth Center
Sat 03:20:46 PM 33.4197 -96.6694 36° Northeast 421 484 22,300 1,600 Climbing Fort Worth Center
Sat 03:21:46 PM 33.5258 -96.5836 34° Northeast 450 518 23,800 1,550 Climbing Fort Worth Center
Sat 03:22:46 PM 33.6336 -96.5003 33° Northeast 450 518 25,400 1,400 Climbing Fort Worth Center
Sat 03:23:46 PM 33.7417 -96.4119 34° Northeast 460 529 26,600 1,250 Climbing Fort Worth Center
Sat 03:24:46 PM 33.8536 -96.3231 33° Northeast 467 537 27,900 1,200 Climbing Fort Worth Center
Sat 03:25:46 PM 33.9675 -96.2264 35° Northeast 485 558 29,000 1,400 Climbing Fort Worth Center
Sat 03:26:46 PM 34.0814 -96.1372 33° Northeast 485 558 30,700 1,450 Climbing Fort Worth Center
Sat 03:27:46 PM 34.1869 -96.0478 35° Northeast 479 551 31,900 1,100 Climbing Fort Worth Center
Sat 03:28:46 PM 34.2964 -95.9581 34° Northeast 479 551 32,900 550 Climbing Fort Worth Center
Sat 03:29:46 PM 34.4081 -95.8656 34° Northeast 479 551 33,000 50 Climbing Fort Worth Center
Sat 03:30:46 PM 34.5153 -95.7753 35° Northeast 484 557 33,000  Level Fort Worth Center
Sat 03:31:46 PM 34.6289 -95.6847 33° Northeast 484 557 33,000  Level Fort Worth Center
Sat 03:33:44 PM 34.8575 -95.4994 34° Northeast 486 559 33,000  Level Memphis Center
Sat 03:34:44 PM 34.9675 -95.4100 34° Northeast 481 554 33,000  Level Memphis Center
Sat 03:35:44 PM 35.0778 -95.3175 34° Northeast 481 554 33,000  Level Memphis Center
Sat 03:36:44 PM 35.1856 -95.2247 35° Northeast 481 554 33,000  Level Memphis Center
Sat 03:37:44 PM 35.2933 -95.1344 34° Northeast 481 554 33,000  Level Memphis Center
Sat 03:38:44 PM 35.4011 -95.0439 34° Northeast 481 554 33,000  Level Memphis Center
Sat 03:39:44 PM 35.5111 -94.9506 35° Northeast 476 548 33,000  Level Memphis Center
Sat 03:40:44 PM 35.6167 -94.8594 35° Northeast 476 548 33,000  Level Memphis Center
Sat 03:41:44 PM 35.7264 -94.7656 35° Northeast 476 548 33,000  Level Memphis Center
Sat 03:42:44 PM 35.8317 -94.6714 36° Northeast 476 548 33,000  Level Memphis Center
Sat 03:43:44 PM 35.9411 -94.5822 33° Northeast 471 542 33,000  Level Memphis Center
Sat 03:45:20 PM 36.1078 -94.4353 35° Northeast 463 533 33,000  Level Kansas City Center
Sat 03:46:22 PM 36.2139 -94.3425 35° Northeast 466 536 33,000  Level Kansas City Center
Sat 03:47:23 PM 36.3217 -94.2506 34° Northeast 469 540 33,000  Level Kansas City Center
Sat 03:48:25 PM 36.4281 -94.1550 36° Northeast 470 541 33,000  Level Kansas City Center
Sat 03:49:27 PM 36.5392 -94.0603 34° Northeast 480 552 33,000  Level Kansas City Center
Sat 03:50:28 PM 36.6464 -93.9656 35° Northeast 475 547 33,000 439 Level Kansas City Center
Sat 03:51:30 PM 36.7756 -93.8519 35° Northeast 473 544 33,900 780 Climbing Kansas City Center
Sat 03:52:31 PM 36.8825 -93.7575 35° Northeast 473 544 34,600 585 Climbing Kansas City Center
Sat 03:53:33 PM 36.9883 -93.6631 35° Northeast 469 540 35,100 194 Climbing Kansas City Center
Sat 03:54:35 PM 37.0942 -93.5683 36° Northeast 468 539 35,000  Descending Kansas City Center
Sat 03:55:37 PM 37.2000 -93.4756 35° Northeast 466 536 35,100 49 Climbing Kansas City Center
Sat 03:56:38 PM 37.3069 -93.3797 35° Northeast 468 539 35,100  Level Kansas City Center
Sat 03:57:40 PM 37.4131 -93.2864 35° Northeast 466 536 35,100  Level Kansas City Center
Sat 03:58:42 PM 37.5156 -93.1861 38° Northeast 465 535 35,100  Level Kansas City Center
Sat 03:59:43 PM 37.6422 -93.0714 36° Northeast 465 535 35,100  Level Kansas City Center
Sat 04:00:45 PM 37.7447 -92.9753 37° Northeast 462 532 35,100  Level Kansas City Center
Sat 04:01:47 PM 37.8478 -92.8794 36° Northeast 458 527 35,100  Level Kansas City Center
Sat 04:02:48 PM 37.9531 -92.7800 37° Northeast 465 535 35,100  Level Kansas City Center
Sat 04:03:50 PM 38.0517 -92.6869 37° Northeast 460 529 35,100  Level Kansas City Center
Sat 04:04:52 PM 38.1536 -92.5917 36° Northeast 458 527 35,100  Level Kansas City Center
Sat 04:05:54 PM 38.2667 -92.4853 36° Northeast 464 534 35,100  Level Kansas City Center
Sat 04:06:55 PM 38.3703 -92.3850 37° Northeast 465 535 35,100  Level Kansas City Center
Sat 04:07:57 PM 38.4744 -92.2869 36° Northeast 463 533 35,100  Level Kansas City Center
Sat 04:08:59 PM 38.5764 -92.1878 37° Northeast 459 528 35,100  Level Kansas City Center
Sat 04:10:00 PM 38.6800 -92.0892 37° Northeast 460 529 35,100  Level Kansas City Center
Sat 04:11:02 PM 38.8017 -91.9706 37° Northeast 458 527 35,100  Level Kansas City Center
Sat 04:12:04 PM 38.9033 -91.8728 37° Northeast 457 526 35,100  Level Kansas City Center
Sat 04:13:06 PM 39.0058 -91.7747 37° Northeast 457 526 35,100  Level Kansas City Center
Sat 04:14:07 PM 39.0964 -91.6864 37° Northeast 458 527 35,100  Level Kansas City Center
Sat 04:15:09 PM 39.1967 -91.5875 37° Northeast 455 524 35,100  Level Kansas City Center
Sat 04:16:11 PM 39.3203 -91.4667 37° Northeast 461 531 35,100  Level Kansas City Center
Sat 04:17:13 PM 39.4222 -91.3661 37° Northeast 462 532 35,100  Level Kansas City Center
Sat 04:18:14 PM 39.5239 -91.2650 37° Northeast 461 531 35,100  Level Kansas City Center
Sat 04:19:16 PM 39.6264 -91.1628 38° Northeast 461 531 35,100  Level Kansas City Center
Sat 04:21:20 PM 39.8250 -90.9619 38° Northeast 457 526 35,100 -32 Level Kansas City Center
Sat 04:22:21 PM 39.9269 -90.8636 36° Northeast 457 526 35,000  Descending Kansas City Center
Sat 04:23:23 PM 40.0464 -90.7414 38° Northeast 454 522 35,100 -435 Climbing Kansas City Center
Sat 04:24:25 PM 40.1461 -90.6392 38° Northeast 454 522 34,100 -1,071 Descending Kansas City Center
Sat 04:25:15 PM 40.2275 -90.5575 37° Northeast 457 526 33,100 -589 Descending Chicago Center
Sat 04:26:17 PM 40.3281 -90.4547 38° Northeast 459 528 33,000 -48 Descending Chicago Center
Sat 04:27:19 PM 40.4289 -90.3508 38° Northeast 458 527 33,000  Level Chicago Center
Sat 04:28:20 PM 40.5367 -90.2389 38° Northeast 457 526 33,000  Level Chicago Center
Sat 04:29:22 PM 40.6383 -90.1356 38° Northeast 463 533 33,000 -242 Level Chicago Center
Sat 04:30:24 PM 40.7403 -90.0317 38° Northeast 465 535 32,500 -1,113 Descending Chicago Center
Sat 04:31:26 PM 40.8603 -89.9047 39° Northeast 462 532 30,700 -1,984 Descending Chicago Center
Sat 04:32:28 PM 40.9564 -89.7964 40° Northeast 455 524 28,400 -2,390 Descending Chicago Center
Sat 04:33:29 PM 41.0661 -89.6897 36° Northeast 468 539 25,800 -2,293 Descending Chicago Center
Sat 04:34:31 PM 41.1619 -89.5792 41° Northeast 458 527 23,700 -2,032 Descending Chicago Center
Sat 04:35:33 PM 41.2200 -89.4419 61° Northeast 424 488 21,600 -2,177 Descending Chicago Center
Sat 04:36:35 PM 41.2739 -89.3061 62° Northeast 416 479 19,200 -2,274 Descending Chicago Center
Sat 04:37:37 PM 41.3233 -89.1819 62° Northeast 401 461 16,900 -2,341 Descending Chicago Center
Sat 04:38:38 PM 41.3825 -89.0317 62° Northeast 385 443 14,400 -2,098 Descending Chicago Center
Sat 04:39:40 PM 41.4317 -88.9094 62° Northeast 376 433 12,600 -1,403 Descending Chicago Center
Sat 04:40:42 PM 41.4806 -88.7858 62° Northeast 377 434 11,500 -774 Descending Chicago Center
Sat 04:41:44 PM 41.5239 -88.6767 62° Northeast 339 390 11,000 -244 Descending Chicago Center
Sat 04:42:45 PM 41.5625 -88.5781 62° Northeast 300 345 11,000 -146 Level Chicago Center
Sat 04:43:47 PM 41.6025 -88.4811 61° Northeast 298 343 10,700 -1,065 Descending Chicago Center
Sat 04:44:49 PM 41.6628 -88.3789 52° Northeast 290 334 8,800 -1,645 Descending Chicago Center
Sat 04:45:51 PM 41.7397 -88.3508 15° North 291 335 7,300 -1,016 Descending Chicago Center
Sat 04:46:53 PM 41.8175 -88.3208 16° North 290 334 6,700 -1,024 Descending Chicago Center
Sat 04:47:54 PM 41.8917 -88.2981 13° North 279 321 5,200 -1,317 Descending Chicago Center
Sat 04:48:56 PM 41.9533 -88.2525 29° Northeast 275 316 4,000 -629 Descending Chicago Center
Sat 04:49:58 PM 41.9686 -88.1572 78° East 272 313 3,900 -97 Descending Chicago Center

Login

Don't have an account? Register now (free) for customized features, flight alerts, and more!